sensor_id;sensor_type;location;lat;lon;timestamp;pressure;altitude;pressure_sealevel;temperature;humidity
25722;BME280;13578;53.450;15.496;2023-04-28T00:01:34;100154.13;;;1.30;100.00
25722;BME280;13578;53.450;15.496;2023-04-28T00:04:35;100149.94;;;1.23;100.00
25722;BME280;13578;53.450;15.496;2023-04-28T00:07:35;100149.88;;;1.24;100.00
25722;BME280;13578;53.450;15.496;2023-04-28T00:10:36;100158.19;;;1.20;100.00
25722;BME280;13578;53.450;15.496;2023-04-28T00:13:38;100144.00;;;1.15;100.00
25722;BME280;13578;53.450;15.496;2023-04-28T00:16:38;100152.94;;;1.17;100.00
25722;BME280;13578;53.450;15.496;2023-04-28T00:19:39;100152.78;;;1.20;100.00
25722;BME280;13578;53.450;15.496;2023-04-28T00:22:39;100147.44;;;1.18;100.00
25722;BME280;13578;53.450;15.496;2023-04-28T00:25:40;100136.84;;;1.14;100.00
25722;BME280;13578;53.450;15.496;2023-04-28T00:28:41;100144.28;;;1.08;100.00
25722;BME280;13578;53.450;15.496;2023-04-28T00:31:41;100135.22;;;1.09;100.00
25722;BME280;13578;53.450;15.496;2023-04-28T00:34:42;100132.28;;;1.14;100.00
25722;BME280;13578;53.450;15.496;2023-04-28T00:37:43;100130.28;;;1.19;100.00
25722;BME280;13578;53.450;15.496;2023-04-28T00:40:43;100131.31;;;1.17;100.00
25722;BME280;13578;53.450;15.496;2023-04-28T00:43:47;100127.03;;;1.11;100.00
25722;BME280;13578;53.450;15.496;2023-04-28T00:46:48;100117.53;;;1.02;100.00
25722;BME280;13578;53.450;15.496;2023-04-28T00:49:48;100121.63;;;1.11;100.00
25722;BME280;13578;53.450;15.496;2023-04-28T00:52:50;100126.03;;;1.14;100.00
25722;BME280;13578;53.450;15.496;2023-04-28T00:55:52;100110.16;;;1.06;100.00
25722;BME280;13578;53.450;15.496;2023-04-28T00:58:54;100124.41;;;1.09;100.00
25722;BME280;13578;53.450;15.496;2023-04-28T01:01:54;100116.72;;;1.00;100.00
25722;BME280;13578;53.450;15.496;2023-04-28T01:04:56;100118.53;;;1.00;100.00
25722;BME280;13578;53.450;15.496;2023-04-28T01:07:57;100122.25;;;0.97;100.00
25722;BME280;13578;53.450;15.496;2023-04-28T01:10:58;100111.22;;;1.02;100.00
25722;BME280;13578;53.450;15.496;2023-04-28T01:13:58;100112.63;;;1.10;100.00
25722;BME280;13578;53.450;15.496;2023-04-28T01:16:59;100114.38;;;1.11;100.00
25722;BME280;13578;53.450;15.496;2023-04-28T01:20:00;100114.38;;;1.11;100.00
25722;BME280;13578;53.450;15.496;2023-04-28T01:23:01;100117.81;;;1.15;100.00
25722;BME280;13578;53.450;15.496;2023-04-28T01:26:01;100106.00;;;1.18;100.00
25722;BME280;13578;53.450;15.496;2023-04-28T01:29:02;100118.44;;;1.22;100.00
25722;BME280;13578;53.450;15.496;2023-04-28T01:32:03;100123.03;;;1.20;100.00
25722;BME280;13578;53.450;15.496;2023-04-28T01:35:04;100110.63;;;1.16;100.00
25722;BME280;13578;53.450;15.496;2023-04-28T01:38:05;100116.81;;;1.18;100.00
25722;BME280;13578;53.450;15.496;2023-04-28T01:41:06;100117.09;;;1.11;100.00
25722;BME280;13578;53.450;15.496;2023-04-28T01:44:06;100120.81;;;1.09;100.00
25722;BME280;13578;53.450;15.496;2023-04-28T01:47:07;100118.31;;;1.04;100.00
25722;BME280;13578;53.450;15.496;2023-04-28T01:50:08;100109.19;;;1.07;100.00
25722;BME280;13578;53.450;15.496;2023-04-28T01:53:09;100107.66;;;1.01;100.00
25722;BME280;13578;53.450;15.496;2023-04-28T01:56:11;100101.72;;;0.93;100.00
25722;BME280;13578;53.450;15.496;2023-04-28T01:59:12;100105.38;;;0.92;100.00
25722;BME280;13578;53.450;15.496;2023-04-28T02:02:13;100102.00;;;0.87;100.00
25722;BME280;13578;53.450;15.496;2023-04-28T02:05:13;100116.94;;;0.95;100.00
25722;BME280;13578;53.450;15.496;2023-04-28T02:08:14;100099.03;;;0.93;100.00
25722;BME280;13578;53.450;15.496;2023-04-28T02:11:15;100103.50;;;0.94;100.00
25722;BME280;13578;53.450;15.496;2023-04-28T02:14:16;100089.56;;;0.83;100.00
25722;BME280;13578;53.450;15.496;2023-04-28T02:17:16;100092.56;;;0.76;100.00
25722;BME280;13578;53.450;15.496;2023-04-28T02:20:17;100093.66;;;0.72;100.00
25722;BME280;13578;53.450;15.496;2023-04-28T02:23:18;100082.59;;;0.58;100.00
25722;BME280;13578;53.450;15.496;2023-04-28T02:26:18;100099.34;;;0.66;100.00
25722;BME280;13578;53.450;15.496;2023-04-28T02:29:19;100097.69;;;0.62;100.00
25722;BME280;13578;53.450;15.496;2023-04-28T02:32:19;100093.94;;;0.66;100.00
25722;BME280;13578;53.450;15.496;2023-04-28T02:35:21;100094.13;;;0.61;100.00
25722;BME280;13578;53.450;15.496;2023-04-28T02:38:21;100090.69;;;0.58;100.00
25722;BME280;13578;53.450;15.496;2023-04-28T02:41:22;100104.97;;;0.60;100.00
25722;BME280;13578;53.450;15.496;2023-04-28T02:44:23;100100.94;;;0.50;100.00
25722;BME280;13578;53.450;15.496;2023-04-28T02:47:24;100102.69;;;0.51;100.00
25722;BME280;13578;53.450;15.496;2023-04-28T02:50:24;100106.94;;;0.56;100.00
25722;BME280;13578;53.450;15.496;2023-04-28T02:53:25;100096.41;;;0.50;100.00
25722;BME280;13578;53.450;15.496;2023-04-28T02:56:26;100096.31;;;0.31;100.00
25722;BME280;13578;53.450;15.496;2023-04-28T02:59:29;100086.25;;;0.14;100.00
25722;BME280;13578;53.450;15.496;2023-04-28T03:02:30;100088.19;;;0.10;100.00
25722;BME280;13578;53.450;15.496;2023-04-28T03:05:31;100095.25;;;0.14;100.00
25722;BME280;13578;53.450;15.496;2023-04-28T03:08:31;100090.06;;;0.08;100.00
25722;BME280;13578;53.450;15.496;2023-04-28T03:11:32;100090.06;;;0.08;100.00
25722;BME280;13578;53.450;15.496;2023-04-28T03:14:33;100087.63;;;0.02;100.00
25722;BME280;13578;53.450;15.496;2023-04-28T03:17:34;100082.88;;;-0.13;100.00
25722;BME280;13578;53.450;15.496;2023-04-28T03:20:41;100069.56;;;-0.18;100.00
25722;BME280;13578;53.450;15.496;2023-04-28T03:23:41;100069.94;;;-0.05;100.00
25722;BME280;13578;53.450;15.496;2023-04-28T03:26:42;100078.88;;;-0.03;100.00
25722;BME280;13578;53.450;15.496;2023-04-28T03:29:42;100066.00;;;-0.19;100.00
25722;BME280;13578;53.450;15.496;2023-04-28T03:32:43;100069.38;;;-0.13;100.00
25722;BME280;13578;53.450;15.496;2023-04-28T03:35:44;100083.31;;;-0.02;100.00
25722;BME280;13578;53.450;15.496;2023-04-28T03:38:44;100080.38;;;0.04;100.00
25722;BME280;13578;53.450;15.496;2023-04-28T03:41:45;100080.47;;;0.01;100.00
25722;BME280;13578;53.450;15.496;2023-04-28T03:44:46;100081.19;;;0.06;100.00
25722;BME280;13578;53.450;15.496;2023-04-28T03:47:46;100081.22;;;0.05;100.00
25722;BME280;13578;53.450;15.496;2023-04-28T03:50:47;100081.84;;;0.11;100.00
25722;BME280;13578;53.450;15.496;2023-04-28T03:53:47;100081.00;;;0.11;100.00
25722;BME280;13578;53.450;15.496;2023-04-28T03:56:48;100078.34;;;0.09;100.00
25722;BME280;13578;53.450;15.496;2023-04-28T03:59:48;100080.78;;;0.15;100.00
25722;BME280;13578;53.450;15.496;2023-04-28T04:02:50;100080.59;;;0.20;100.00
25722;BME280;13578;53.450;15.496;2023-04-28T04:05:51;100069.94;;;0.17;100.00
25722;BME280;13578;53.450;15.496;2023-04-28T04:08:52;100074.69;;;0.10;100.00
25722;BME280;13578;53.450;15.496;2023-04-28T04:11:53;100079.84;;;0.17;100.00
25722;BME280;13578;53.450;15.496;2023-04-28T04:14:54;100083.75;;;0.30;100.00
25722;BME280;13578;53.450;15.496;2023-04-28T04:17:54;100089.03;;;0.33;100.00
25722;BME280;13578;53.450;15.496;2023-04-28T04:20:55;100081.06;;;0.30;100.00
25722;BME280;13578;53.450;15.496;2023-04-28T04:23:56;100089.59;;;0.41;100.00
25722;BME280;13578;53.450;15.496;2023-04-28T04:26:57;100093.63;;;0.52;100.00
25722;BME280;13578;53.450;15.496;2023-04-28T04:29:57;100097.03;;;0.57;100.00
25722;BME280;13578;53.450;15.496;2023-04-28T04:32:58;100085.00;;;0.64;100.00
25722;BME280;13578;53.450;15.496;2023-04-28T04:35:59;100092.09;;;0.67;100.00
25722;BME280;13578;53.450;15.496;2023-04-28T04:38:59;100097.13;;;0.74;100.00
25722;BME280;13578;53.450;15.496;2023-04-28T04:42:01;100097.56;;;0.86;100.00
25722;BME280;13578;53.450;15.496;2023-04-28T04:45:02;100097.81;;;1.00;100.00
25722;BME280;13578;53.450;15.496;2023-04-28T04:48:02;100089.47;;;1.05;100.00
25722;BME280;13578;53.450;15.496;2023-04-28T04:51:03;100097.66;;;1.22;100.00
25722;BME280;13578;53.450;15.496;2023-04-28T04:54:04;100080.38;;;1.26;100.00
25722;BME280;13578;53.450;15.496;2023-04-28T04:57:04;100085.47;;;1.33;100.00
25722;BME280;13578;53.450;15.496;2023-04-28T05:00:06;100094.25;;;1.57;100.00
25722;BME280;13578;53.450;15.496;2023-04-28T05:03:08;100089.94;;;1.72;100.00
25722;BME280;13578;53.450;15.496;2023-04-28T05:06:09;100089.63;;;1.78;100.00
25722;BME280;13578;53.450;15.496;2023-04-28T05:09:09;100101.75;;;1.88;100.00
25722;BME280;13578;53.450;15.496;2023-04-28T05:12:10;100091.47;;;2.14;100.00
25722;BME280;13578;53.450;15.496;2023-04-28T05:15:11;100095.22;;;2.47;100.00
25722;BME280;13578;53.450;15.496;2023-04-28T05:18:11;100094.50;;;2.61;100.00
25722;BME280;13578;53.450;15.496;2023-04-28T05:21:13;100092.34;;;2.85;100.00
25722;BME280;13578;53.450;15.496;2023-04-28T05:24:14;100108.56;;;3.02;100.00
25722;BME280;13578;53.450;15.496;2023-04-28T05:27:14;100106.88;;;3.17;100.00
25722;BME280;13578;53.450;15.496;2023-04-28T05:30:15;100114.03;;;3.52;100.00
25722;BME280;13578;53.450;15.496;2023-04-28T05:33:16;100105.28;;;3.79;100.00
25722;BME280;13578;53.450;15.496;2023-04-28T05:36:16;100110.72;;;4.11;100.00
25722;BME280;13578;53.450;15.496;2023-04-28T05:39:17;100109.75;;;4.42;100.00
25722;BME280;13578;53.450;15.496;2023-04-28T05:42:17;100108.97;;;4.71;100.00
25722;BME280;13578;53.450;15.496;2023-04-28T05:45:18;100121.56;;;5.02;100.00
25722;BME280;13578;53.450;15.496;2023-04-28T05:48:19;100108.66;;;5.20;100.00
25722;BME280;13578;53.450;15.496;2023-04-28T05:51:19;100109.75;;;5.47;100.00
25722;BME280;13578;53.450;15.496;2023-04-28T05:54:21;100108.44;;;5.67;100.00
25722;BME280;13578;53.450;15.496;2023-04-28T05:57:22;100101.13;;;5.82;100.00
25722;BME280;13578;53.450;15.496;2023-04-28T06:00:22;100100.59;;;6.04;100.00
25722;BME280;13578;53.450;15.496;2023-04-28T06:03:23;100101.81;;;6.27;100.00
25722;BME280;13578;53.450;15.496;2023-04-28T06:06:24;100087.22;;;6.41;100.00
25722;BME280;13578;53.450;15.496;2023-04-28T06:09:25;100101.28;;;6.75;100.00
25722;BME280;13578;53.450;15.496;2023-04-28T06:12:26;100095.81;;;6.88;100.00
25722;BME280;13578;53.450;15.496;2023-04-28T06:15:26;100089.72;;;6.97;100.00
25722;BME280;13578;53.450;15.496;2023-04-28T06:18:28;100088.31;;;7.18;100.00
25722;BME280;13578;53.450;15.496;2023-04-28T06:21:31;100095.94;;;7.38;100.00
25722;BME280;13578;53.450;15.496;2023-04-28T06:24:33;100097.13;;;7.47;100.00
25722;BME280;13578;53.450;15.496;2023-04-28T06:27:33;100070.44;;;7.63;100.00
25722;BME280;13578;53.450;15.496;2023-04-28T06:30:34;100063.19;;;7.75;100.00
25722;BME280;13578;53.450;15.496;2023-04-28T06:33:35;100050.25;;;7.90;100.00
25722;BME280;13578;53.450;15.496;2023-04-28T06:36:36;100044.81;;;8.15;100.00
25722;BME280;13578;53.450;15.496;2023-04-28T06:39:36;100016.50;;;8.27;100.00
25722;BME280;13578;53.450;15.496;2023-04-28T06:42:37;100027.66;;;8.48;100.00
25722;BME280;13578;53.450;15.496;2023-04-28T06:45:38;100026.59;;;8.62;100.00
25722;BME280;13578;53.450;15.496;2023-04-28T06:48:38;100016.53;;;8.63;100.00
25722;BME280;13578;53.450;15.496;2023-04-28T06:51:39;100006.94;;;8.57;100.00
25722;BME280;13578;53.450;15.496;2023-04-28T06:54:39;99995.78;;;8.71;100.00
25722;BME280;13578;53.450;15.496;2023-04-28T06:57:40;100007.25;;;8.88;100.00
25722;BME280;13578;53.450;15.496;2023-04-28T07:00:41;99984.25;;;9.02;99.56
25722;BME280;13578;53.450;15.496;2023-04-28T07:03:42;99994.94;;;9.16;99.44
25722;BME280;13578;53.450;15.496;2023-04-28T07:06:42;99995.44;;;9.21;100.00
25722;BME280;13578;53.450;15.496;2023-04-28T07:09:43;100015.72;;;9.19;100.00
25722;BME280;13578;53.450;15.496;2023-04-28T07:12:44;100017.06;;;9.59;100.00
25722;BME280;13578;53.450;15.496;2023-04-28T07:15:44;99980.22;;;9.51;96.17
25722;BME280;13578;53.450;15.496;2023-04-28T07:18:45;99996.28;;;9.67;99.01
25722;BME280;13578;53.450;15.496;2023-04-28T07:21:46;99986.34;;;9.99;96.77
25722;BME280;13578;53.450;15.496;2023-04-28T07:24:47;99965.44;;;10.19;92.31
25722;BME280;13578;53.450;15.496;2023-04-28T07:27:47;99949.66;;;10.32;89.47
25722;BME280;13578;53.450;15.496;2023-04-28T07:30:48;99959.34;;;10.48;89.30
25722;BME280;13578;53.450;15.496;2023-04-28T07:33:48;99939.50;;;10.65;86.88
25722;BME280;13578;53.450;15.496;2023-04-28T07:36:49;99934.94;;;10.76;84.74
25722;BME280;13578;53.450;15.496;2023-04-28T07:39:50;99920.09;;;10.88;83.62
25722;BME280;13578;53.450;15.496;2023-04-28T07:42:51;99928.25;;;11.00;83.29
25722;BME280;13578;53.450;15.496;2023-04-28T07:45:51;99905.00;;;11.04;76.60
25722;BME280;13578;53.450;15.496;2023-04-28T07:48:53;99882.75;;;11.07;72.01
25722;BME280;13578;53.450;15.496;2023-04-28T07:51:53;99876.09;;;11.00;68.81
25722;BME280;13578;53.450;15.496;2023-04-28T07:54:54;99866.88;;;11.10;68.87
25722;BME280;13578;53.450;15.496;2023-04-28T07:57:55;99868.63;;;11.21;67.69
25722;BME280;13578;53.450;15.496;2023-04-28T08:00:57;99859.41;;;11.32;65.02
25722;BME280;13578;53.450;15.496;2023-04-28T08:03:58;99856.66;;;11.32;65.52
25722;BME280;13578;53.450;15.496;2023-04-28T08:06:59;99855.50;;;11.44;63.87
25722;BME280;13578;53.450;15.496;2023-04-28T08:10:00;99876.34;;;11.57;65.76
25722;BME280;13578;53.450;15.496;2023-04-28T08:13:00;99862.06;;;11.73;63.62
25722;BME280;13578;53.450;15.496;2023-04-28T08:16:01;99851.06;;;11.73;60.80
25722;BME280;13578;53.450;15.496;2023-04-28T08:19:01;99866.69;;;11.92;64.10
25722;BME280;13578;53.450;15.496;2023-04-28T08:22:02;99856.53;;;12.12;61.00
25722;BME280;13578;53.450;15.496;2023-04-28T08:25:06;99844.84;;;12.10;59.63
25722;BME280;13578;53.450;15.496;2023-04-28T08:28:07;99867.66;;;12.30;59.96
25722;BME280;13578;53.450;15.496;2023-04-28T08:31:08;99822.38;;;11.85;56.10
25722;BME280;13578;53.450;15.496;2023-04-28T08:34:08;99829.78;;;12.04;56.02
25722;BME280;13578;53.450;15.496;2023-04-28T08:37:09;99846.25;;;12.14;57.62
25722;BME280;13578;53.450;15.496;2023-04-28T08:40:10;99865.78;;;12.31;61.09
25722;BME280;13578;53.450;15.496;2023-04-28T08:43:11;99842.03;;;12.30;58.35
25722;BME280;13578;53.450;15.496;2023-04-28T08:46:13;99847.28;;;12.03;59.43
25722;BME280;13578;53.450;15.496;2023-04-28T08:49:16;99850.91;;;11.74;60.85
25722;BME280;13578;53.450;15.496;2023-04-28T08:52:17;99845.81;;;11.40;60.52
25722;BME280;13578;53.450;15.496;2023-04-28T08:55:19;99875.91;;;11.62;63.02
25722;BME280;13578;53.450;15.496;2023-04-28T08:58:21;99818.59;;;11.96;58.04
25722;BME280;13578;53.450;15.496;2023-04-28T09:01:23;99833.53;;;12.13;57.82
25722;BME280;13578;53.450;15.496;2023-04-28T09:04:24;99811.97;;;12.18;56.84
25722;BME280;13578;53.450;15.496;2023-04-28T09:07:25;99841.63;;;12.05;59.23
25722;BME280;13578;53.450;15.496;2023-04-28T09:10:26;99807.59;;;12.16;56.79
25722;BME280;13578;53.450;15.496;2023-04-28T09:13:26;99809.63;;;12.23;57.53
25722;BME280;13578;53.450;15.496;2023-04-28T09:16:39;99802.09;;;12.26;55.04
25722;BME280;13578;53.450;15.496;2023-04-28T09:19:40;99809.00;;;12.30;57.30
25722;BME280;13578;53.450;15.496;2023-04-28T09:22:44;99791.56;;;12.11;55.56
25722;BME280;13578;53.450;15.496;2023-04-28T09:26:07;99789.25;;;12.44;54.45
25722;BME280;13578;53.450;15.496;2023-04-28T09:29:11;99800.91;;;12.28;55.88
25722;BME280;13578;53.450;15.496;2023-04-28T09:32:17;99774.81;;;12.32;53.79
25722;BME280;13578;53.450;15.496;2023-04-28T09:35:40;99778.91;;;12.28;53.82
25722;BME280;13578;53.450;15.496;2023-04-28T09:38:43;99799.22;;;12.17;55.57
25722;BME280;13578;53.450;15.496;2023-04-28T09:41:44;99771.50;;;12.29;54.63
25722;BME280;13578;53.450;15.496;2023-04-28T09:44:52;99761.28;;;12.49;54.02
25722;BME280;13578;53.450;15.496;2023-04-28T09:48:08;99742.03;;;12.49;51.57
25722;BME280;13578;53.450;15.496;2023-04-28T09:51:09;99752.97;;;12.31;52.46
25722;BME280;13578;53.450;15.496;2023-04-28T09:54:11;99756.91;;;12.56;52.92
25722;BME280;13578;53.450;15.496;2023-04-28T09:57:13;99742.47;;;12.72;50.89
25722;BME280;13578;53.450;15.496;2023-04-28T10:00:15;99747.47;;;12.86;50.99
25722;BME280;13578;53.450;15.496;2023-04-28T10:03:16;99787.06;;;13.03;54.30
25722;BME280;13578;53.450;15.496;2023-04-28T10:06:20;99746.06;;;13.00;50.35
25722;BME280;13578;53.450;15.496;2023-04-28T10:09:33;99741.19;;;12.94;49.99
25722;BME280;13578;53.450;15.496;2023-04-28T10:12:34;99733.63;;;12.96;49.72
25722;BME280;13578;53.450;15.496;2023-04-28T10:15:38;99733.53;;;12.70;49.54
25722;BME280;13578;53.450;15.496;2023-04-28T10:18:39;99747.06;;;12.81;51.13
25722;BME280;13578;53.450;15.496;2023-04-28T10:21:46;99739.38;;;13.03;51.40
25722;BME280;13578;53.450;15.496;2023-04-28T10:28:12;99713.66;;;13.30;49.24
25722;BME280;13578;53.450;15.496;2023-04-28T10:31:18;99733.28;;;13.45;50.37
25722;BME280;13578;53.450;15.496;2023-04-28T10:34:22;99720.50;;;13.44;49.56
25722;BME280;13578;53.450;15.496;2023-04-28T10:38:25;99721.75;;;13.32;51.08
25722;BME280;13578;53.450;15.496;2023-04-28T10:41:30;99700.34;;;13.26;48.99
25722;BME280;13578;53.450;15.496;2023-04-28T10:48:00;99675.56;;;13.44;46.31
25722;BME280;13578;53.450;15.496;2023-04-28T10:54:06;99671.69;;;12.82;46.59
25722;BME280;13578;53.450;15.496;2023-04-28T10:57:15;99678.88;;;12.93;48.30
25722;BME280;13578;53.450;15.496;2023-04-28T11:00:36;99660.56;;;12.56;46.90
25722;BME280;13578;53.450;15.496;2023-04-28T11:06:44;99700.34;;;12.90;51.43
25722;BME280;13578;53.450;15.496;2023-04-28T11:09:46;99705.69;;;13.09;50.87
25722;BME280;13578;53.450;15.496;2023-04-28T11:13:24;99735.78;;;13.21;54.74
25722;BME280;13578;53.450;15.496;2023-04-28T11:16:24;99691.22;;;13.25;50.08
25722;BME280;13578;53.450;15.496;2023-04-28T11:22:33;99707.72;;;13.79;52.79
25722;BME280;13578;53.450;15.496;2023-04-28T11:25:56;99652.28;;;13.64;47.89
25722;BME280;13578;53.450;15.496;2023-04-28T11:28:59;99671.31;;;13.49;50.56
25722;BME280;13578;53.450;15.496;2023-04-28T11:32:04;99679.13;;;13.89;50.80
25722;BME280;13578;53.450;15.496;2023-04-28T11:35:05;99676.81;;;14.02;50.11
25722;BME280;13578;53.450;15.496;2023-04-28T11:38:08;99656.22;;;14.23;48.65
25722;BME280;13578;53.450;15.496;2023-04-28T11:41:09;99684.03;;;14.72;49.93
25722;BME280;13578;53.450;15.496;2023-04-28T11:44:13;99625.19;;;14.29;45.28
25722;BME280;13578;53.450;15.496;2023-04-28T11:47:14;99689.97;;;14.51;51.17
25722;BME280;13578;53.450;15.496;2023-04-28T11:50:15;99623.81;;;14.84;46.93
25722;BME280;13578;53.450;15.496;2023-04-28T11:53:15;99693.97;;;15.00;52.87
25722;BME280;13578;53.450;15.496;2023-04-28T11:56:16;99624.88;;;14.91;46.17
25722;BME280;13578;53.450;15.496;2023-04-28T11:59:23;99685.66;;;15.00;51.24
25722;BME280;13578;53.450;15.496;2023-04-28T12:02:27;99611.22;;;15.06;45.13
25722;BME280;13578;53.450;15.496;2023-04-28T12:05:28;99577.72;;;14.93;42.56
25722;BME280;13578;53.450;15.496;2023-04-28T12:08:29;99559.59;;;14.82;41.49
25722;BME280;13578;53.450;15.496;2023-04-28T12:11:30;99630.72;;;14.72;47.23
25722;BME280;13578;53.450;15.496;2023-04-28T12:14:32;99557.53;;;14.84;41.25
25722;BME280;13578;53.450;15.496;2023-04-28T12:17:37;99599.50;;;15.04;44.41
25722;BME280;13578;53.450;15.496;2023-04-28T12:20:38;99599.13;;;15.16;44.77
25722;BME280;13578;53.450;15.496;2023-04-28T12:23:39;99574.44;;;14.98;44.09
25722;BME280;13578;53.450;15.496;2023-04-28T12:26:42;99575.47;;;15.05;43.77
25722;BME280;13578;53.450;15.496;2023-04-28T12:29:43;99571.84;;;14.96;43.59
25722;BME280;13578;53.450;15.496;2023-04-28T12:32:46;99585.31;;;14.91;45.24
25722;BME280;13578;53.450;15.496;2023-04-28T12:35:46;99566.84;;;15.00;43.73
25722;BME280;13578;53.450;15.496;2023-04-28T12:38:48;99536.59;;;14.98;42.05
25722;BME280;13578;53.450;15.496;2023-04-28T12:41:48;99532.47;;;14.86;41.05
25722;BME280;13578;53.450;15.496;2023-04-28T12:44:49;99512.81;;;14.97;39.97
25722;BME280;13578;53.450;15.496;2023-04-28T12:47:50;99561.84;;;14.87;42.58
25722;BME280;13578;53.450;15.496;2023-04-28T12:50:50;99543.88;;;14.91;42.44
25722;BME280;13578;53.450;15.496;2023-04-28T12:53:51;99545.59;;;15.17;42.59
25722;BME280;13578;53.450;15.496;2023-04-28T12:56:52;99566.66;;;15.09;44.58
25722;BME280;13578;53.450;15.496;2023-04-28T12:59:55;99574.97;;;15.01;44.73
25722;BME280;13578;53.450;15.496;2023-04-28T13:02:56;99522.63;;;15.00;41.50
25722;BME280;13578;53.450;15.496;2023-04-28T13:05:57;99547.66;;;15.06;42.97
25722;BME280;13578;53.450;15.496;2023-04-28T13:08:58;99541.94;;;15.24;43.05
25722;BME280;13578;53.450;15.496;2023-04-28T13:11:59;99528.28;;;15.39;42.50
25722;BME280;13578;53.450;15.496;2023-04-28T13:15:03;99515.38;;;15.23;41.44
25722;BME280;13578;53.450;15.496;2023-04-28T13:18:03;99531.06;;;15.23;43.87
25722;BME280;13578;53.450;15.496;2023-04-28T13:21:04;99479.94;;;15.19;40.00
25722;BME280;13578;53.450;15.496;2023-04-28T13:24:05;99508.63;;;15.26;41.96
25722;BME280;13578;53.450;15.496;2023-04-28T13:27:05;99503.06;;;15.34;42.88
25722;BME280;13578;53.450;15.496;2023-04-28T13:30:09;99496.47;;;15.35;42.32
25722;BME280;13578;53.450;15.496;2023-04-28T13:33:10;99480.25;;;15.40;41.07
25722;BME280;13578;53.450;15.496;2023-04-28T13:36:11;99481.09;;;15.33;40.60
25722;BME280;13578;53.450;15.496;2023-04-28T13:39:12;99477.13;;;15.35;40.72
25722;BME280;13578;53.450;15.496;2023-04-28T13:42:15;99472.31;;;15.29;40.66
25722;BME280;13578;53.450;15.496;2023-04-28T13:45:16;99474.03;;;15.30;40.70
25722;BME280;13578;53.450;15.496;2023-04-28T13:48:16;99448.13;;;15.31;39.27
25722;BME280;13578;53.450;15.496;2023-04-28T13:51:17;99466.47;;;15.24;40.59
25722;BME280;13578;53.450;15.496;2023-04-28T13:54:18;99472.69;;;15.26;41.39
25722;BME280;13578;53.450;15.496;2023-04-28T13:57:18;99453.84;;;15.30;40.21
25722;BME280;13578;53.450;15.496;2023-04-28T14:00:19;99467.28;;;15.33;41.83
25722;BME280;13578;53.450;15.496;2023-04-28T14:03:20;99476.28;;;15.35;42.83
25722;BME280;13578;53.450;15.496;2023-04-28T14:06:22;99463.81;;;15.39;42.39
25722;BME280;13578;53.450;15.496;2023-04-28T14:09:22;99505.09;;;15.49;44.59
25722;BME280;13578;53.450;15.496;2023-04-28T14:12:23;99502.16;;;15.50;45.53
25722;BME280;13578;53.450;15.496;2023-04-28T14:15:24;99488.00;;;15.45;45.51
25722;BME280;13578;53.450;15.496;2023-04-28T14:18:28;99473.28;;;15.53;43.38
25722;BME280;13578;53.450;15.496;2023-04-28T14:21:29;99468.78;;;15.52;43.86
25722;BME280;13578;53.450;15.496;2023-04-28T14:24:30;99467.56;;;15.54;42.92
25722;BME280;13578;53.450;15.496;2023-04-28T14:27:31;99472.38;;;15.61;43.79
25722;BME280;13578;53.450;15.496;2023-04-28T14:30:32;99431.81;;;15.45;42.17
25722;BME280;13578;53.450;15.496;2023-04-28T14:33:33;99430.19;;;15.27;42.28
25722;BME280;13578;53.450;15.496;2023-04-28T14:36:33;99448.97;;;15.32;44.09
25722;BME280;13578;53.450;15.496;2023-04-28T14:39:34;99460.53;;;15.35;44.68
25722;BME280;13578;53.450;15.496;2023-04-28T14:42:35;99461.59;;;15.34;44.82
25722;BME280;13578;53.450;15.496;2023-04-28T14:45:36;99467.28;;;15.33;45.72
25722;BME280;13578;53.450;15.496;2023-04-28T14:48:40;99464.53;;;15.24;46.41
25722;BME280;13578;53.450;15.496;2023-04-28T14:51:40;99511.22;;;14.95;51.23
25722;BME280;13578;53.450;15.496;2023-04-28T14:54:41;99470.84;;;14.77;48.63
25722;BME280;13578;53.450;15.496;2023-04-28T14:57:42;99502.09;;;14.77;51.12
25722;BME280;13578;53.450;15.496;2023-04-28T15:00:43;99477.41;;;14.76;49.60
25722;BME280;13578;53.450;15.496;2023-04-28T15:03:44;99486.41;;;14.78;50.36
25722;BME280;13578;53.450;15.496;2023-04-28T15:06:45;99459.09;;;14.83;49.22
25722;BME280;13578;53.450;15.496;2023-04-28T15:09:45;99477.75;;;14.89;51.25
25722;BME280;13578;53.450;15.496;2023-04-28T15:12:46;99462.88;;;14.99;50.36
25722;BME280;13578;53.450;15.496;2023-04-28T15:15:47;99470.44;;;15.21;50.88
25722;BME280;13578;53.450;15.496;2023-04-28T15:59:05;99467.22;;;14.76;56.73
25722;BME280;13578;53.450;15.496;2023-04-28T16:02:06;99495.88;;;14.67;60.65
25722;BME280;13578;53.450;15.496;2023-04-28T16:05:07;99462.91;;;14.74;55.48
25722;BME280;13578;53.450;15.496;2023-04-28T16:08:08;99514.19;;;14.68;62.89
25722;BME280;13578;53.450;15.496;2023-04-28T16:11:09;99487.03;;;14.39;60.31
25722;BME280;13578;53.450;15.496;2023-04-28T16:14:16;99472.50;;;14.28;59.62
25722;BME280;13578;53.450;15.496;2023-04-28T16:17:17;99498.56;;;14.26;61.46
25722;BME280;13578;53.450;15.496;2023-04-28T16:20:18;99515.81;;;14.28;64.44
25722;BME280;13578;53.450;15.496;2023-04-28T16:23:18;99487.19;;;14.21;61.76
25722;BME280;13578;53.450;15.496;2023-04-28T16:26:20;99473.88;;;14.16;61.00
25722;BME280;13578;53.450;15.496;2023-04-28T16:29:21;99480.81;;;14.20;60.76
25722;BME280;13578;53.450;15.496;2023-04-28T16:32:22;99482.53;;;14.13;60.97
25722;BME280;13578;53.450;15.496;2023-04-28T16:35:24;99476.13;;;14.12;60.86
25722;BME280;13578;53.450;15.496;2023-04-28T16:38:24;99481.63;;;14.12;61.46
25722;BME280;13578;53.450;15.496;2023-04-28T16:41:25;99467.28;;;14.01;61.57